Time;durP1;ratioP1;P1;durP2;ratioP2;P2;SDS_P1;SDS_P2;PMS_P1;PMS_P2;Temp;Humidity;BMP_temperature;BMP_pressure;BME280_temperature;BME280_humidity;BME280_pressure;Samples;Min_cycle;Max_cycle;Signal;HPM_P1;HPM_P2
2022/10/04 00:01:57;;;;;;;4.82;3.08;;;11.90;99.90;;;;;;5047704;28;20200;-73
2022/10/04 00:04:38;;;;;;;5.10;2.80;;;11.90;99.90;;;;;;5052728;28;20188;-72
2022/10/04 00:07:07;;;;;;;4.47;2.97;;;11.90;99.90;;;;;;5051107;28;20192;-73
2022/10/04 00:09:45;;;;;;;5.05;2.90;;;11.90;99.90;;;;;;5049177;28;20185;-72
2022/10/04 00:12:19;;;;;;;5.03;3.22;;;11.90;99.90;;;;;;5054522;28;20189;-74
2022/10/04 00:14:45;;;;;;;3.80;2.88;;;12.00;99.90;;;;;;5061025;28;20288;-72
2022/10/04 00:17:12;;;;;;;3.15;2.83;;;12.00;99.90;;;;;;5051938;28;20186;-73
2022/10/04 00:19:48;;;;;;;3.92;3.08;;;12.00;99.90;;;;;;5055759;28;20185;-72
2022/10/04 00:22:34;;;;;;;3.08;2.65;;;11.90;99.90;;;;;;5045120;28;20173;-73
2022/10/04 00:25:08;;;;;;;3.15;2.63;;;12.00;99.90;;;;;;5055653;28;20189;-73
2022/10/04 00:27:38;;;;;;;4.22;2.78;;;12.00;99.90;;;;;;5056119;28;20220;-72
2022/10/04 00:30:04;;;;;;;5.10;2.90;;;11.90;99.90;;;;;;5053803;28;20181;-71
2022/10/04 00:32:39;;;;;;;3.75;2.97;;;11.90;99.90;;;;;;5053979;28;20192;-73
2022/10/04 00:35:24;;;;;;;3.90;3.20;;;11.90;99.90;;;;;;5049221;28;20213;-73
2022/10/04 00:38:07;;;;;;;3.83;3.10;;;11.90;99.90;;;;;;5053182;28;20177;-73
2022/10/04 00:40:41;;;;;;;6.43;2.95;;;11.90;99.90;;;;;;5045181;28;20211;-73
2022/10/04 00:43:17;;;;;;;4.53;2.90;;;11.90;99.90;;;;;;5057360;28;20212;-73
2022/10/04 00:45:54;;;;;;;4.60;2.95;;;11.90;99.90;;;;;;5054917;28;20224;-72
2022/10/04 00:48:53;;;;;;;4.13;2.92;;;11.90;99.90;;;;;;5056271;28;20199;-73
2022/10/04 00:51:31;;;;;;;4.05;2.90;;;11.90;99.90;;;;;;5051969;28;20186;-73
2022/10/04 00:54:10;;;;;;;4.63;2.75;;;12.00;99.90;;;;;;5053078;28;20532;-73
2022/10/04 00:57:02;;;;;;;5.47;3.15;;;12.00;99.90;;;;;;5056101;28;20613;-72
2022/10/04 00:59:52;;;;;;;4.00;3.05;;;12.00;99.90;;;;;;5069243;28;20213;-72
2022/10/04 01:02:25;;;;;;;3.97;3.03;;;12.00;99.90;;;;;;5056625;28;20177;-73
2022/10/04 01:05:08;;;;;;;3.72;3.30;;;12.00;99.90;;;;;;5057975;28;20173;-73
2022/10/04 01:07:40;;;;;;;7.63;3.47;;;12.00;99.90;;;;;;5057076;28;20166;-73
2022/10/04 01:10:21;;;;;;;6.45;3.10;;;11.90;99.90;;;;;;5052891;28;20196;-73
2022/10/04 01:12:52;;;;;;;4.38;3.30;;;12.00;99.90;;;;;;5052303;28;20208;-73
2022/10/04 01:15:42;;;;;;;4.40;2.92;;;12.00;99.90;;;;;;5036374;28;20297;-73
2022/10/04 01:18:19;;;;;;;4.20;2.97;;;12.00;99.90;;;;;;5039868;28;20182;-73
2022/10/04 01:20:59;;;;;;;4.70;3.30;;;12.00;99.90;;;;;;5040434;28;20532;-73
2022/10/04 01:23:50;;;;;;;4.80;3.28;;;12.00;99.90;;;;;;5061469;28;20173;-73
2022/10/04 01:26:28;;;;;;;4.90;3.10;;;12.00;99.90;;;;;;5041403;28;20177;-73
2022/10/04 01:29:14;;;;;;;4.60;2.88;;;12.00;99.90;;;;;;5064565;28;20245;-73
2022/10/04 01:31:47;;;;;;;5.93;3.55;;;12.00;99.90;;;;;;5053420;28;20221;-73
2022/10/04 01:34:16;;;;;;;7.43;3.53;;;12.00;99.90;;;;;;5041387;28;20201;-73
2022/10/04 01:36:46;;;;;;;5.35;3.42;;;12.00;99.90;;;;;;5056048;28;20169;-73
2022/10/04 01:39:12;;;;;;;5.15;3.30;;;12.00;99.90;;;;;;5054955;28;20200;-73
2022/10/04 01:41:47;;;;;;;4.85;3.55;;;12.10;99.90;;;;;;5049537;28;20206;-71
2022/10/04 01:44:40;;;;;;;5.47;3.33;;;12.00;99.90;;;;;;5035932;28;20235;-74
2022/10/04 01:47:14;;;;;;;3.78;3.05;;;12.00;99.90;;;;;;5061905;28;20268;-75
2022/10/04 01:49:45;;;;;;;6.15;3.50;;;12.00;99.90;;;;;;5039062;28;20192;-73
2022/10/04 01:52:28;;;;;;;6.35;3.13;;;12.00;99.90;;;;;;5055733;28;20181;-74
2022/10/04 01:55:12;;;;;;;4.40;3.03;;;12.00;99.90;;;;;;5055003;28;20189;-73
2022/10/04 01:57:51;;;;;;;4.70;3.25;;;12.00;99.90;;;;;;5052172;28;20236;-73
2022/10/04 02:00:20;;;;;;;4.88;3.28;;;12.00;99.90;;;;;;5060454;28;20192;-72
2022/10/04 02:02:55;;;;;;;4.45;3.20;;;12.00;99.90;;;;;;5036438;28;20186;-73
2022/10/04 02:05:50;;;;;;;4.25;3.40;;;12.00;99.90;;;;;;5052383;28;20192;-73
2022/10/04 02:08:21;;;;;;;4.57;3.03;;;12.00;99.90;;;;;;5048534;28;20279;-73
2022/10/04 02:10:50;;;;;;;4.43;3.00;;;12.00;99.90;;;;;;5052097;28;20210;-74
2022/10/04 02:13:19;;;;;;;4.75;3.20;;;12.00;99.90;;;;;;5052314;28;20182;-73
2022/10/04 02:15:48;;;;;;;3.47;3.15;;;12.00;99.90;;;;;;5054712;28;20209;-73
2022/10/04 02:18:19;;;;;;;5.15;3.67;;;12.00;99.90;;;;;;5051069;28;20212;-71
2022/10/04 02:20:49;;;;;;;5.32;3.35;;;12.00;99.90;;;;;;5054342;28;20173;-73
2022/10/04 02:23:21;;;;;;;5.72;3.15;;;12.00;99.90;;;;;;5034742;28;20257;-74
2022/10/04 02:25:47;;;;;;;3.90;3.50;;;12.00;99.90;;;;;;5035562;28;20269;-73
2022/10/04 02:28:14;;;;;;;4.13;3.10;;;12.00;99.90;;;;;;5057753;28;20266;-73
2022/10/04 02:32:56;;;;;;;4.40;3.15;;;11.90;99.90;;;;;;5054835;28;20177;-72
2022/10/04 02:33:37;;;;;;;4.15;3.35;;;11.90;99.90;;;;;;5051069;28;20195;-71
2022/10/04 02:36:08;;;;;;;3.35;2.88;;;11.90;99.90;;;;;;5059382;28;20260;-72
2022/10/04 02:38:46;;;;;;;4.35;3.30;;;11.90;99.90;;;;;;5049818;28;20203;-73
2022/10/04 02:41:23;;;;;;;5.07;3.50;;;11.80;99.90;;;;;;5047284;28;20170;-73
2022/10/04 02:44:10;;;;;;;4.85;3.55;;;11.80;99.90;;;;;;5053221;28;20173;-73
2022/10/04 02:47:10;;;;;;;6.18;3.72;;;11.80;99.90;;;;;;5056217;28;20193;-73
2022/10/04 02:49:51;;;;;;;5.65;3.75;;;11.80;99.90;;;;;;5059219;28;20210;-70
2022/10/04 02:52:41;;;;;;;5.40;3.50;;;11.70;99.90;;;;;;5054010;28;20469;-74
2022/10/04 02:55:09;;;;;;;7.78;3.50;;;11.70;99.90;;;;;;5054744;28;20212;-73
2022/10/04 02:57:43;;;;;;;5.80;3.83;;;11.70;99.90;;;;;;5043561;28;20240;-73
2022/10/04 03:00:18;;;;;;;7.10;3.90;;;11.60;99.90;;;;;;5051589;28;20193;-73
2022/10/04 03:03:21;;;;;;;5.60;4.18;;;11.60;99.90;;;;;;5049100;28;20185;-74
2022/10/04 03:06:10;;;;;;;5.65;3.95;;;11.60;99.90;;;;;;5055105;28;20184;-73
2022/10/04 03:08:56;;;;;;;4.83;4.03;;;11.50;99.90;;;;;;5049771;28;20313;-73
2022/10/04 03:11:30;;;;;;;6.60;4.65;;;11.50;99.90;;;;;;5041051;28;20182;-74
2022/10/04 03:14:01;;;;;;;6.20;4.27;;;11.50;99.90;;;;;;5050856;28;20213;-73
2022/10/04 03:16:36;;;;;;;5.43;4.33;;;11.40;99.90;;;;;;5054890;28;20173;-73
2022/10/04 03:19:03;;;;;;;4.30;3.42;;;11.40;99.90;;;;;;5046390;28;20227;-74
2022/10/04 03:21:31;;;;;;;6.30;3.80;;;11.30;99.90;;;;;;5052470;28;20264;-73
2022/10/04 03:23:59;;;;;;;5.93;3.83;;;11.40;99.90;;;;;;5051677;28;20177;-73
2022/10/04 03:26:37;;;;;;;6.77;4.40;;;11.40;99.90;;;;;;5061456;28;20183;-73
2022/10/04 03:29:09;;;;;;;5.80;4.33;;;11.30;99.90;;;;;;5064303;28;20179;-73
2022/10/04 03:31:39;;;;;;;17.97;13.53;;;11.30;99.90;;;;;;5053900;28;20209;-73
2022/10/04 03:34:18;;;;;;;83.37;58.60;;;11.30;99.90;;;;;;5057731;28;20202;-73
2022/10/04 03:36:45;;;;;;;24.80;19.47;;;11.30;99.90;;;;;;5053433;28;20181;-73
2022/10/04 03:39:16;;;;;;;15.10;12.50;;;11.30;99.90;;;;;;5054179;28;20243;-73
2022/10/04 03:41:42;;;;;;;12.20;9.50;;;11.20;99.90;;;;;;5057930;28;20230;-74
2022/10/04 03:44:15;;;;;;;8.93;7.13;;;11.20;99.90;;;;;;5054862;28;20185;-72
2022/10/04 03:46:44;;;;;;;15.23;11.10;;;11.20;99.90;;;;;;5071475;28;20460;-73
2022/10/04 03:49:19;;;;;;;9.47;7.03;;;11.20;99.90;;;;;;5038677;28;20181;-73
2022/10/04 03:51:48;;;;;;;9.13;5.80;;;11.10;99.90;;;;;;5046996;28;20184;-73
2022/10/04 03:54:26;;;;;;;6.13;5.20;;;11.10;99.90;;;;;;5057683;28;20240;-74
2022/10/04 03:56:56;;;;;;;6.17;4.70;;;11.10;99.90;;;;;;5049012;28;20186;-73
2022/10/04 03:59:24;;;;;;;6.70;4.90;;;11.10;99.90;;;;;;5051824;28;20207;-73
2022/10/04 04:02:25;;;;;;;6.33;4.57;;;11.10;99.90;;;;;;5057979;28;20197;-73
2022/10/04 04:05:09;;;;;;;8.60;5.43;;;11.10;99.90;;;;;;5056062;28;20197;-73
2022/10/04 04:07:42;;;;;;;10.13;6.53;;;11.10;99.90;;;;;;5048886;28;20259;-73
2022/10/04 04:10:22;;;;;;;6.40;4.97;;;11.00;99.90;;;;;;5052133;28;20208;-72
2022/10/04 04:13:17;;;;;;;10.57;4.60;;;11.00;99.90;;;;;;5051587;28;20200;-73
2022/10/04 04:15:44;;;;;;;5.77;4.23;;;11.00;99.90;;;;;;5057189;28;20212;-72
2022/10/04 04:18:22;;;;;;;5.05;4.25;;;11.00;99.90;;;;;;5045583;28;20255;-72
2022/10/04 04:20:52;;;;;;;4.77;4.13;;;10.90;99.90;;;;;;5055206;28;20201;-70
2022/10/04 04:23:38;;;;;;;6.07;4.20;;;10.90;99.90;;;;;;5064847;28;20181;-73
2022/10/04 04:26:26;;;;;;;6.07;3.97;;;10.90;99.90;;;;;;5043981;28;20206;-74
2022/10/04 04:28:57;;;;;;;10.77;7.73;;;10.90;99.90;;;;;;5056734;28;20178;-73
2022/10/04 04:31:45;;;;;;;7.00;5.13;;;10.90;99.90;;;;;;5057249;28;20182;-73
2022/10/04 04:34:24;;;;;;;8.03;4.97;;;10.90;99.90;;;;;;5049533;28;20335;-72
2022/10/04 04:37:00;;;;;;;8.00;5.37;;;10.90;99.90;;;;;;5054417;28;20232;-73
2022/10/04 04:39:40;;;;;;;7.87;5.43;;;10.80;99.90;;;;;;5043833;28;20292;-73
2022/10/04 04:42:17;;;;;;;5.70;4.53;;;10.80;99.90;;;;;;5056814;28;20181;-73
2022/10/04 04:44:54;;;;;;;7.03;4.77;;;10.80;99.90;;;;;;5065246;28;20195;-69
2022/10/04 04:47:34;;;;;;;5.27;4.50;;;10.80;99.90;;;;;;5057121;28;20184;-72
2022/10/04 04:50:30;;;;;;;5.73;4.47;;;10.80;99.90;;;;;;5065444;28;20407;-74
2022/10/04 04:53:17;;;;;;;7.30;4.40;;;10.80;99.90;;;;;;5058450;28;20360;-73
2022/10/04 04:55:52;;;;;;;5.40;4.33;;;10.80;99.90;;;;;;5046558;28;20247;-74
2022/10/04 04:58:22;;;;;;;4.67;3.50;;;10.80;99.90;;;;;;5056186;28;20213;-73
2022/10/04 05:01:21;;;;;;;4.20;3.70;;;10.80;99.90;;;;;;5051758;28;20189;-73
2022/10/04 05:04:04;;;;;;;5.10;3.70;;;10.80;99.90;;;;;;5048760;28;20230;-72
2022/10/04 05:06:34;;;;;;;4.93;3.77;;;10.80;99.90;;;;;;5053921;28;20173;-74
2022/10/04 05:09:04;;;;;;;4.90;3.30;;;10.80;99.90;;;;;;5057277;28;20181;-75
2022/10/04 05:11:38;;;;;;;4.37;3.63;;;10.70;99.90;;;;;;5052445;28;20277;-75
2022/10/04 05:14:07;;;;;;;4.50;3.77;;;10.70;99.90;;;;;;5043580;28;20185;-74
2022/10/04 05:16:45;;;;;;;4.43;3.80;;;10.70;99.90;;;;;;5055624;28;20197;-74
2022/10/04 05:19:30;;;;;;;5.47;3.83;;;10.70;99.90;;;;;;5056683;28;20196;-72
2022/10/04 05:22:05;;;;;;;4.80;3.70;;;10.60;99.90;;;;;;5047951;28;20208;-73
2022/10/04 05:24:38;;;;;;;5.53;4.03;;;10.70;99.90;;;;;;5048322;28;20199;-73
2022/10/04 05:27:15;;;;;;;5.63;3.80;;;10.60;99.90;;;;;;5054854;28;20172;-73
2022/10/04 05:29:56;;;;;;;5.40;4.40;;;10.60;99.90;;;;;;5056462;28;20216;-71
2022/10/04 05:32:40;;;;;;;4.97;3.83;;;10.60;99.90;;;;;;5051994;28;20173;-72
2022/10/04 05:35:51;;;;;;;6.80;4.57;;;10.60;99.90;;;;;;5050358;28;20223;-72
2022/10/04 05:38:28;;;;;;;5.93;4.30;;;10.60;99.90;;;;;;5079357;28;20280;-73
2022/10/04 05:41:16;;;;;;;5.97;4.67;;;10.70;99.90;;;;;;5059547;28;20238;-72
2022/10/04 05:43:52;;;;;;;5.30;4.73;;;10.60;99.90;;;;;;5053700;28;20197;-70
2022/10/04 05:46:25;;;;;;;6.13;4.90;;;10.70;99.90;;;;;;5072193;28;20208;-70
2022/10/04 05:49:05;;;;;;;5.40;4.47;;;10.70;99.90;;;;;;5053112;28;20210;-70
2022/10/04 05:51:37;;;;;;;5.07;4.25;;;10.70;99.90;;;;;;5067003;28;20200;-70
2022/10/04 05:54:04;;;;;;;4.37;3.80;;;10.70;99.90;;;;;;5053877;28;20194;-70
2022/10/04 05:56:29;;;;;;;5.40;3.83;;;10.70;99.90;;;;;;5038960;28;20213;-70
2022/10/04 05:59:09;;;;;;;6.03;4.20;;;10.70;99.90;;;;;;5040739;28;20181;-70
2022/10/04 06:01:56;;;;;;;5.33;4.27;;;10.80;99.90;;;;;;5054920;28;20193;-70
2022/10/04 06:05:00;;;;;;;5.17;4.10;;;10.80;99.90;;;;;;5055437;28;20209;-77
2022/10/04 06:07:37;;;;;;;6.30;4.13;;;10.80;99.90;;;;;;5062896;28;20195;-76
2022/10/04 06:10:18;;;;;;;5.00;4.17;;;10.80;99.90;;;;;;5057457;28;20205;-80
2022/10/04 06:13:12;;;;;;;6.00;4.10;;;10.80;99.90;;;;;;5053279;28;20237;-76
2022/10/04 06:16:05;;;;;;;5.67;3.73;;;10.80;99.90;;;;;;5050476;28;20216;-77
2022/10/04 06:18:40;;;;;;;5.83;4.13;;;10.80;99.90;;;;;;5056857;28;20261;-75
2022/10/04 06:21:20;;;;;;;6.00;3.55;;;10.90;99.90;;;;;;5057520;28;20236;-74
2022/10/04 06:23:51;;;;;;;6.25;4.00;;;10.90;99.90;;;;;;5050961;28;20177;-70
2022/10/04 06:26:24;;;;;;;4.78;4.28;;;11.00;99.90;;;;;;5065151;28;20260;-71
2022/10/04 06:28:59;;;;;;;5.20;3.63;;;11.00;99.90;;;;;;5056162;28;20261;-70
2022/10/04 06:31:42;;;;;;;4.53;3.97;;;11.00;99.90;;;;;;5050209;28;20196;-71
2022/10/04 06:34:28;;;;;;;6.72;4.07;;;11.00;99.90;;;;;;5085513;28;20197;-72
2022/10/04 06:37:14;;;;;;;4.63;3.73;;;11.00;99.90;;;;;;5063086;28;20189;-73
2022/10/04 06:40:14;;;;;;;5.90;3.77;;;11.00;99.90;;;;;;5057032;28;20205;-71
2022/10/04 06:42:58;;;;;;;4.97;3.83;;;11.00;99.90;;;;;;5060649;28;20185;-72
2022/10/04 06:45:29;;;;;;;5.63;3.73;;;11.00;99.90;;;;;;5058554;28;20197;-71
2022/10/04 06:48:24;;;;;;;6.57;3.83;;;11.00;99.90;;;;;;5065550;28;20260;-72
2022/10/04 06:51:14;;;;;;;5.35;4.25;;;11.00;99.90;;;;;;5066190;28;20177;-71
2022/10/04 06:54:05;;;;;;;4.60;4.00;;;11.00;99.90;;;;;;5039739;28;20178;-71
2022/10/04 06:56:33;;;;;;;5.95;4.60;;;11.00;99.90;;;;;;5053872;28;20288;-71
2022/10/04 06:59:17;;;;;;;5.65;4.10;;;11.00;99.90;;;;;;5053561;28;20216;-72
2022/10/04 07:02:04;;;;;;;5.22;4.50;;;11.10;99.90;;;;;;5053168;28;20177;-72
2022/10/04 07:04:44;;;;;;;5.68;4.50;;;11.10;99.90;;;;;;5052888;28;20169;-69
2022/10/04 07:07:23;;;;;;;4.50;3.97;;;11.10;99.90;;;;;;5049314;28;20267;-70
2022/10/04 07:10:00;;;;;;;5.90;4.78;;;11.10;99.90;;;;;;5050218;28;20154;-71
2022/10/04 07:12:27;;;;;;;5.60;4.57;;;11.10;99.90;;;;;;5050802;28;20251;-71
2022/10/04 07:15:01;;;;;;;5.50;4.63;;;11.10;99.90;;;;;;5050610;28;20209;-73
2022/10/04 07:17:37;;;;;;;4.68;4.00;;;11.10;99.90;;;;;;5053808;28;20161;-70
2022/10/04 07:20:08;;;;;;;5.95;5.00;;;11.10;99.90;;;;;;5054296;28;20195;-71
2022/10/04 07:22:44;;;;;;;7.05;5.05;;;11.20;99.90;;;;;;5037913;28;20205;-71
2022/10/04 07:25:21;;;;;;;6.50;5.00;;;11.30;99.90;;;;;;5038870;28;20208;-70
2022/10/04 07:29:19;;;;;;;6.95;4.43;;;11.30;99.90;;;;;;5053990;28;20215;-72
2022/10/04 07:31:02;;;;;;;4.93;4.43;;;11.40;99.90;;;;;;5039839;28;20181;-72
2022/10/04 07:33:35;;;;;;;5.35;4.50;;;11.40;99.90;;;;;;5034462;28;20208;-71
2022/10/04 07:36:30;;;;;;;4.88;4.30;;;11.50;99.90;;;;;;5034128;28;20209;-71
2022/10/04 07:39:03;;;;;;;7.65;4.88;;;11.50;99.90;;;;;;5040453;28;20206;-71
2022/10/04 07:41:35;;;;;;;5.35;4.28;;;11.60;99.90;;;;;;5040501;28;20184;-71
2022/10/04 07:44:19;;;;;;;7.97;5.50;;;11.70;99.90;;;;;;5046461;28;20198;-71
2022/10/04 07:46:48;;;;;;;6.18;4.80;;;11.80;99.90;;;;;;5033775;28;20220;-71
2022/10/04 07:49:16;;;;;;;6.20;4.90;;;11.80;99.90;;;;;;5033690;28;20213;-72
2022/10/04 07:51:54;;;;;;;7.47;5.35;;;11.90;99.90;;;;;;5055790;28;20185;-72
2022/10/04 07:54:43;;;;;;;5.13;4.63;;;12.00;99.90;;;;;;5072285;28;20291;-72
2022/10/04 07:57:41;;;;;;;5.82;5.13;;;12.10;99.90;;;;;;5050464;28;20213;-71
2022/10/04 08:00:33;;;;;;;5.55;4.40;;;12.20;99.90;;;;;;5053032;28;20214;-72
2022/10/04 08:03:17;;;;;;;5.72;4.50;;;12.30;99.90;;;;;;5043067;28;20244;-70
2022/10/04 08:06:10;;;;;;;5.47;4.55;;;12.40;99.90;;;;;;5056057;28;20238;-70
2022/10/04 08:08:53;;;;;;;7.25;5.78;;;12.50;99.90;;;;;;5073406;28;20157;-70
2022/10/04 08:11:39;;;;;;;5.75;5.10;;;12.50;99.90;;;;;;5033821;28;20162;-71
2022/10/04 08:14:04;;;;;;;5.97;4.57;;;12.60;99.90;;;;;;5058075;28;20295;-70
2022/10/04 08:16:56;;;;;;;5.90;5.30;;;12.60;99.90;;;;;;5054626;28;20375;-70
2022/10/04 08:19:36;;;;;;;7.95;4.70;;;12.70;99.90;;;;;;5049643;28;20178;-71
2022/10/04 08:22:13;;;;;;;5.53;4.70;;;12.80;99.90;;;;;;5035423;28;20158;-71
2022/10/04 08:24:57;;;;;;;6.20;4.32;;;12.90;99.90;;;;;;5056742;28;20181;-71
2022/10/04 08:31:08;;;;;;;5.03;4.22;;;13.00;99.90;;;;;;5058685;28;20196;-70
2022/10/04 08:33:57;;;;;;;5.72;4.30;;;13.10;99.90;;;;;;5040691;28;20186;-71
2022/10/04 08:36:48;;;;;;;4.88;3.97;;;13.10;99.90;;;;;;5036843;28;20255;-71
2022/10/04 08:39:29;;;;;;;8.07;4.45;;;13.20;99.90;;;;;;5051906;28;20174;-70
2022/10/04 08:42:28;;;;;;;5.57;4.32;;;13.20;99.90;;;;;;5060977;28;20181;-71
2022/10/04 08:45:24;;;;;;;4.60;4.10;;;13.30;99.90;;;;;;5057952;28;20208;-71
2022/10/04 08:48:23;;;;;;;6.60;4.40;;;13.30;99.90;;;;;;5038991;28;20227;-71
2022/10/04 08:51:16;;;;;;;5.43;4.03;;;13.40;99.90;;;;;;5069603;28;20331;-71
2022/10/04 08:54:02;;;;;;;5.60;3.45;;;13.50;99.90;;;;;;5054504;28;20464;-71
2022/10/04 08:56:58;;;;;;;4.40;3.35;;;13.60;99.90;;;;;;5044167;28;20185;-71
2022/10/04 08:59:45;;;;;;;5.63;4.43;;;13.60;99.90;;;;;;5056443;28;20237;-70
2022/10/04 09:02:24;;;;;;;5.03;3.58;;;13.70;99.90;;;;;;5036834;28;20169;-71
2022/10/04 09:04:56;;;;;;;4.97;3.47;;;13.90;99.90;;;;;;5036424;28;20170;-70
2022/10/04 09:07:54;;;;;;;5.72;3.38;;;13.90;99.90;;;;;;5036426;28;20235;-70
2022/10/04 09:10:39;;;;;;;5.57;3.38;;;14.00;99.90;;;;;;5045743;28;20178;-70
2022/10/04 09:13:40;;;;;;;5.10;2.95;;;14.20;99.90;;;;;;5036538;28;20178;-71
2022/10/04 09:16:11;;;;;;;4.28;3.28;;;14.30;99.90;;;;;;5072398;28;20272;-71
2022/10/04 09:18:58;;;;;;;4.13;3.28;;;14.40;99.90;;;;;;5050283;28;20181;-71
2022/10/04 09:21:29;;;;;;;6.00;3.00;;;14.50;99.90;;;;;;5054278;28;20183;-72
2022/10/04 09:24:20;;;;;;;5.60;3.70;;;15.00;99.90;;;;;;5036441;28;20202;-71
2022/10/04 09:27:21;;;;;;;3.67;3.38;;;15.80;99.90;;;;;;5047313;28;20453;-70
2022/10/04 09:30:03;;;;;;;4.60;3.42;;;16.50;99.90;;;;;;5071424;28;20204;-71
2022/10/04 09:32:37;;;;;;;5.15;3.60;;;17.30;99.90;;;;;;5056758;28;20191;-70
2022/10/04 09:35:22;;;;;;;5.75;3.78;;;17.90;99.90;;;;;;5053821;28;20215;-71
2022/10/04 09:38:04;;;;;;;5.60;3.17;;;18.30;99.90;;;;;;5052390;28;20218;-71
2022/10/04 09:41:13;;;;;;;4.15;3.40;;;18.80;99.90;;;;;;5036623;28;20182;-71
2022/10/04 09:44:15;;;;;;;3.95;3.08;;;19.20;99.90;;;;;;5038600;28;20165;-70
2022/10/04 09:47:09;;;;;;;4.75;3.38;;;19.50;99.90;;;;;;5036101;28;20231;-71
2022/10/04 09:49:54;;;;;;;4.60;2.88;;;19.80;99.90;;;;;;5046107;28;20185;-71
2022/10/04 09:52:28;;;;;;;5.53;3.00;;;20.00;99.90;;;;;;5053843;28;20169;-71
2022/10/04 09:55:31;;;;;;;3.75;2.53;;;20.40;99.90;;;;;;5053378;28;20196;-71
2022/10/04 09:58:08;;;;;;;3.92;2.63;;;20.80;99.90;;;;;;5037930;28;20241;-71
2022/10/04 10:00:43;;;;;;;3.42;2.70;;;21.00;99.90;;;;;;5035204;28;20307;-71
2022/10/04 10:03:40;;;;;;;4.28;2.83;;;21.30;99.90;;;;;;5038034;28;20216;-72
2022/10/04 10:06:28;;;;;;;2.72;2.53;;;21.50;99.90;;;;;;5053347;28;20200;-71
2022/10/04 10:08:56;;;;;;;3.35;2.38;;;21.70;99.90;;;;;;5044382;28;20244;-72
2022/10/04 10:14:24;;;;;;;3.03;2.40;;;22.00;99.90;;;;;;5035867;28;20224;-71
2022/10/04 10:17:16;;;;;;;3.63;2.58;;;22.10;99.90;;;;;;5057774;28;20210;-71
2022/10/04 10:19:59;;;;;;;4.97;2.38;;;22.30;99.90;;;;;;5042837;28;20178;-71
2022/10/04 10:22:47;;;;;;;5.25;2.85;;;22.40;99.90;;;;;;5040980;28;20161;-71
2022/10/04 10:25:26;;;;;;;3.97;2.28;;;22.50;99.90;;;;;;5056771;28;20227;-72
2022/10/04 10:28:17;;;;;;;3.13;2.05;;;22.60;99.90;;;;;;5056627;28;20161;-74
2022/10/04 10:31:16;;;;;;;2.78;2.25;;;22.60;99.90;;;;;;5055702;28;20177;-71
2022/10/04 10:33:51;;;;;;;4.00;2.13;;;22.50;99.90;;;;;;5055224;28;20292;-71
2022/10/04 10:36:39;;;;;;;3.17;2.13;;;22.50;99.90;;;;;;5035583;28;20212;-72
2022/10/04 10:39:22;;;;;;;6.07;2.40;;;22.60;99.90;;;;;;5064372;28;20253;-72
2022/10/04 10:42:15;;;;;;;3.15;2.25;;;22.60;99.90;;;;;;5065495;28;20173;-71
2022/10/04 10:45:20;;;;;;;3.97;2.33;;;22.70;99.90;;;;;;5054689;28;20173;-71
2022/10/04 10:48:00;;;;;;;3.40;2.20;;;22.70;99.90;;;;;;5054305;28;20205;-72
2022/10/04 10:50:58;;;;;;;3.10;2.10;;;22.70;99.90;;;;;;5056513;28;20169;-71
2022/10/04 10:53:45;;;;;;;3.05;2.28;;;22.70;99.90;;;;;;5038522;28;20178;-70
2022/10/04 10:56:52;;;;;;;3.50;1.95;;;22.70;99.90;;;;;;5054752;28;20201;-71
2022/10/04 10:59:51;;;;;;;4.50;2.00;;;22.70;99.90;;;;;;5066898;28;20278;-71
2022/10/04 11:02:36;;;;;;;4.00;2.40;;;22.70;99.90;;;;;;5052491;28;20209;-71
2022/10/04 11:05:36;;;;;;;4.18;1.80;;;22.60;99.90;;;;;;5051185;28;20382;-70
2022/10/04 11:08:28;;;;;;;3.17;1.92;;;22.60;99.90;;;;;;5072664;28;20165;-71
2022/10/04 11:11:32;;;;;;;3.97;1.75;;;22.70;99.90;;;;;;5063833;28;20201;-74
2022/10/04 11:14:45;;;;;;;3.28;1.92;;;22.80;99.90;;;;;;5054765;28;20254;-72
2022/10/04 11:17:22;;;;;;;2.58;1.90;;;22.70;99.90;;;;;;5059505;28;20216;-72
2022/10/04 11:20:23;;;;;;;3.47;2.00;;;22.60;99.90;;;;;;5071301;28;20184;-72
2022/10/04 11:22:59;;;;;;;3.05;1.95;;;22.60;99.90;;;;;;5049977;28;20220;-72
2022/10/04 11:25:59;;;;;;;2.65;1.98;;;22.50;99.90;;;;;;5034988;28;20201;-73
2022/10/04 11:28:29;;;;;;;3.15;2.08;;;22.60;99.90;;;;;;5071551;28;20187;-71
2022/10/04 11:31:00;;;;;;;2.90;1.95;;;22.60;99.90;;;;;;5072177;28;20191;-72
2022/10/04 11:33:44;;;;;;;3.30;2.20;;;22.70;99.90;;;;;;5067060;28;20213;-73
2022/10/04 11:36:24;;;;;;;3.53;2.20;;;22.80;99.90;;;;;;5054810;28;20196;-72
2022/10/04 11:39:02;;;;;;;3.72;1.83;;;22.90;99.90;;;;;;5054796;28;20181;-73
2022/10/04 11:41:37;;;;;;;4.25;2.10;;;22.90;99.90;;;;;;5059283;28;20200;-75
2022/10/04 11:44:25;;;;;;;2.67;1.98;;;23.00;99.90;;;;;;5056980;28;20254;-73
2022/10/04 11:47:24;;;;;;;3.05;2.38;;;23.10;99.90;;;;;;5057320;28;20204;-74
2022/10/04 11:50:25;;;;;;;3.65;2.40;;;23.20;99.90;;;;;;5044775;28;20186;-74
2022/10/04 11:53:05;;;;;;;4.90;2.40;;;23.20;99.90;;;;;;5041667;28;20239;-74
2022/10/04 11:55:41;;;;;;;5.05;2.10;;;23.20;99.90;;;;;;5048775;28;20377;-72
2022/10/04 11:58:34;;;;;;;3.15;2.03;;;23.30;99.90;;;;;;5059071;28;20172;-73
2022/10/04 12:01:19;;;;;;;2.63;2.10;;;23.30;99.90;;;;;;5062886;28;20318;-71
2022/10/04 12:04:16;;;;;;;2.92;1.98;;;23.40;99.90;;;;;;5039594;28;20194;-71
2022/10/04 12:07:21;;;;;;;3.25;1.85;;;23.40;99.90;;;;;;5057933;28;20192;-73
2022/10/04 12:10:15;;;;;;;3.63;2.03;;;23.40;99.90;;;;;;5057559;28;20178;-73
2022/10/04 12:12:59;;;;;;;3.00;2.17;;;23.50;99.90;;;;;;5065607;28;20208;-73
2022/10/04 12:15:57;;;;;;;3.03;1.98;;;23.60;99.90;;;;;;5077736;28;20204;-74
2022/10/04 12:18:57;;;;;;;2.65;2.25;;;23.60;99.90;;;;;;5059180;28;20192;-72
2022/10/04 12:21:33;;;;;;;3.50;2.00;;;23.60;99.90;;;;;;5061438;28;20283;-73
2022/10/04 12:24:12;;;;;;;3.25;1.90;;;23.60;99.90;;;;;;5058139;28;20157;-73
2022/10/04 12:27:02;;;;;;;3.40;2.10;;;23.60;99.90;;;;;;5057877;28;20289;-73
2022/10/04 12:29:57;;;;;;;4.95;2.05;;;23.60;99.90;;;;;;5057424;28;20170;-74
2022/10/04 12:32:35;;;;;;;2.80;1.92;;;23.70;99.90;;;;;;5059530;28;20150;-73
2022/10/04 12:35:13;;;;;;;2.30;1.83;;;23.80;99.90;;;;;;5077441;28;20204;-74
2022/10/04 12:38:20;;;;;;;3.03;2.08;;;23.90;99.90;;;;;;5062242;28;20180;-75
2022/10/04 12:41:04;;;;;;;2.58;1.88;;;23.90;99.90;;;;;;5059121;28;20268;-73
2022/10/04 12:43:43;;;;;;;2.70;2.08;;;24.00;99.90;;;;;;5052158;28;20178;-74
2022/10/04 12:46:29;;;;;;;3.58;2.13;;;24.00;99.90;;;;;;5037393;28;20165;-72
2022/10/04 12:49:24;;;;;;;2.47;1.73;;;24.00;99.90;;;;;;5053810;28;20264;-74
2022/10/04 12:52:14;;;;;;;1.90;1.70;;;24.10;99.90;;;;;;5054593;28;20267;-76
2022/10/04 12:54:44;;;;;;;3.08;1.90;;;24.30;99.90;;;;;;5078774;28;20490;-75
2022/10/04 12:57:27;;;;;;;2.55;1.98;;;24.30;99.90;;;;;;5064073;28;20213;-72
2022/10/04 13:00:17;;;;;;;3.03;1.80;;;24.40;99.90;;;;;;5057845;28;20173;-71
2022/10/04 13:03:20;;;;;;;2.58;1.77;;;24.40;99.90;;;;;;5061659;28;20246;-72
2022/10/04 13:05:46;;;;;;;3.45;1.60;;;24.40;99.90;;;;;;5053962;28;20242;-73
2022/10/04 13:08:49;;;;;;;2.72;1.77;;;24.40;99.90;;;;;;5043892;28;20170;-73
2022/10/04 13:11:17;;;;;;;3.60;1.95;;;24.40;99.90;;;;;;5037664;28;20173;-74
2022/10/04 13:13:55;;;;;;;2.33;1.83;;;24.40;99.90;;;;;;5036545;28;20228;-72
2022/10/04 13:16:42;;;;;;;2.90;1.92;;;24.40;99.90;;;;;;5042150;28;20257;-72
2022/10/04 13:19:39;;;;;;;3.15;1.85;;;24.40;99.90;;;;;;5059388;28;20207;-73
2022/10/04 13:22:15;;;;;;;4.35;2.15;;;24.40;99.90;;;;;;5075954;28;20172;-73
2022/10/04 13:25:11;;;;;;;3.30;2.15;;;24.30;99.90;;;;;;5068084;28;20176;-72
2022/10/04 13:27:51;;;;;;;3.67;1.70;;;24.30;99.90;;;;;;5045740;28;20230;-73
2022/10/04 13:30:38;;;;;;;2.10;1.77;;;24.30;99.90;;;;;;5037192;28;20224;-73
2022/10/04 13:33:34;;;;;;;2.53;1.73;;;24.30;99.90;;;;;;5039498;28;20239;-74
2022/10/04 13:36:31;;;;;;;3.30;2.05;;;24.30;99.90;;;;;;5056642;28;20296;-73
2022/10/04 13:39:06;;;;;;;2.85;1.73;;;24.30;99.90;;;;;;5040064;28;20205;-71
2022/10/04 13:41:55;;;;;;;3.50;1.90;;;24.30;99.90;;;;;;5046512;28;20177;-73
2022/10/04 13:44:57;;;;;;;3.05;1.67;;;24.30;99.90;;;;;;5035879;28;20190;-73
2022/10/04 13:47:35;;;;;;;3.45;1.70;;;24.30;99.90;;;;;;5036402;28;20173;-72
2022/10/04 13:50:25;;;;;;;2.95;2.33;;;24.30;99.90;;;;;;5087136;28;20181;-74
2022/10/04 13:59:00;;;;;;;2.42;1.70;;;24.30;99.90;;;;;;5056240;28;20196;-71
2022/10/04 14:01:35;;;;;;;2.28;1.50;;;24.30;99.90;;;;;;5050451;28;20247;-73
2022/10/04 14:04:24;;;;;;;3.40;1.90;;;24.40;99.90;;;;;;5035743;28;20200;-74
2022/10/04 14:07:12;;;;;;;2.42;1.60;;;24.50;99.90;;;;;;5035583;28;20158;-73
2022/10/04 14:09:44;;;;;;;3.95;1.63;;;24.60;99.90;;;;;;5047663;28;20201;-72
2022/10/04 14:12:47;;;;;;;2.97;1.70;;;24.60;99.90;;;;;;5053341;28;20219;-73
2022/10/04 14:15:20;;;;;;;2.22;1.63;;;24.70;99.90;;;;;;5035665;28;20215;-73